Map

Track Data

SID SEASON NUMBER BASIN SUBBASIN NAME ISO_TIME NATURE LAT LON WMO_WIND WMO_PRES WMO_AGENCY TRACK_TYPE DIST2LAND LANDFALL IFLAG USA_AGENCY USA_ATCF_ID USA_LAT USA_LON USA_RECORD USA_STATUS USA_WIND USA_PRES USA_SSHS USA_R34_NE USA_R34_SE USA_R34_SW USA_R34_NW USA_R50_NE USA_R50_SE USA_R50_SW USA_R50_NW USA_R64_NE USA_R64_SE USA_R64_SW USA_R64_NW USA_POCI USA_ROCI USA_RMW USA_EYE TOKYO_LAT TOKYO_LON TOKYO_GRADE TOKYO_WIND TOKYO_PRES TOKYO_R50_DIR TOKYO_R50_LONG TOKYO_R50_SHORT TOKYO_R30_DIR TOKYO_R30_LONG TOKYO_R30_SHORT TOKYO_LAND CMA_LAT CMA_LON CMA_CAT CMA_WIND CMA_PRES HKO_LAT HKO_LON HKO_CAT HKO_WIND HKO_PRES NEWDELHI_LAT NEWDELHI_LON NEWDELHI_GRADE NEWDELHI_WIND NEWDELHI_PRES NEWDELHI_CI NEWDELHI_DP NEWDELHI_POCI REUNION_LAT REUNION_LON REUNION_TYPE REUNION_WIND REUNION_PRES REUNION_TNUM REUNION_CI REUNION_RMW REUNION_R34_NE REUNION_R34_SE REUNION_R34_SW REUNION_R34_NW REUNION_R50_NE REUNION_R50_SE REUNION_R50_SW REUNION_R50_NW REUNION_R64_NE REUNION_R64_SE REUNION_R64_SW REUNION_R64_NW BOM_LAT BOM_LON BOM_TYPE BOM_WIND BOM_PRES BOM_TNUM BOM_CI BOM_RMW BOM_R34_NE BOM_R34_SE BOM_R34_SW BOM_R34_NW BOM_R50_NE BOM_R50_SE BOM_R50_SW BOM_R50_NW BOM_R64_NE BOM_R64_SE BOM_R64_SW BOM_R64_NW BOM_ROCI BOM_POCI BOM_EYE BOM_POS_METHOD BOM_PRES_METHOD NADI_LAT NADI_LON NADI_CAT NADI_WIND NADI_PRES WELLINGTON_LAT WELLINGTON_LON WELLINGTON_WIND WELLINGTON_PRES DS824_LAT DS824_LON DS824_STAGE DS824_WIND DS824_PRES TD9636_LAT TD9636_LON TD9636_STAGE TD9636_WIND TD9636_PRES TD9635_LAT TD9635_LON TD9635_WIND TD9635_PRES TD9635_ROCI NEUMANN_LAT NEUMANN_LON NEUMANN_CLASS NEUMANN_WIND NEUMANN_PRES MLC_LAT MLC_LON MLC_CLASS MLC_WIND MLC_PRES USA_GUST BOM_GUST BOM_GUST_PER REUNION_GUST REUNION_GUST_PER USA_SEAHGT USA_SEARAD_NE USA_SEARAD_SE USA_SEARAD_SW USA_SEARAD_NW STORM_SPEED STORM_DIR
1987015S09187 1987 5 SP MM TUSI 1987-01-15 00:00:00 TS -8.90000 -172.600 main 515 448 O_________O_O_ jtwc_sh SH081987 -8.90000 -172.600 25 -1 -8.90000 -172.600 1 25 -8.90000 -172.600 TC 25 15 156
1987015S09187 1987 5 SP MM TUSI 1987-01-15 03:00:00 TS -9.57471 -172.297 main 436 382 P_________P_P_ SH081987 -9.59009 -172.283 27 -1 -9.54396 -172.325 1 26 -9.59009 -172.283 TC 27 14 156
1987015S09187 1987 5 SP MM TUSI 1987-01-15 06:00:00 TS -10.1768 -172.020 main 372 331 O_________P_O_ jtwc_sh SH081987 -10.2000 -172.000 30 -1 -10.1303 -172.059 1 27 -10.2000 -172.000 TC 30 12 155
1987015S09187 1987 5 SP MM TUSI 1987-01-15 09:00:00 TS -10.6371 -171.790 main 331 311 P_________P_P_ SH081987 -10.6549 -171.777 30 -1 -10.6015 -171.814 1 28 -10.6549 -171.777 TC 30 7 153
1987015S09187 1987 5 SP MM TUSI 1987-01-15 12:00:00 TS -10.7692 -171.708 30 997 wellington main 311 311 O_______O_O_O_ jtwc_sh SH081987 -10.9000 -171.600 30 -1 -9.20000 -173.000 30 997 -10.9000 -171.600 1 30 -10.9000 -171.600 TC 30 2 102
1987015S09187 1987 5 SP MM TUSI 1987-01-15 15:00:00 TS -10.6798 -171.590 main 325 325 P_______P_P_P_ SH081987 -10.9100 -171.442 32 -1 -9.13521 -172.507 32 996 -10.9917 -171.425 1 31 -10.9100 -171.442 TC 32 4 43
1987015S09187 1987 5 SP MM TUSI 1987-01-15 18:00:00 TS -10.4959 -171.454 35 995 wellington main 349 349 O_______O_P_O_ jtwc_sh SH081987 -10.8000 -171.300 35 0 -9.10000 -172.100 35 995 -10.9348 -171.277 1 32 -10.8000 -171.300 TC 35 4 39
1987015S09187 1987 5 SP MM TUSI 1987-01-15 21:00:00 TS -10.3501 -171.321 main 367 367 P_______P_P_P_ SH081987 -10.7350 -171.157 35 0 -9.11989 -171.827 37 992 -10.8105 -171.141 1 33 -10.7350 -171.157 TC 35 3 60
1987015S09187 1987 5 SP MM TUSI 1987-01-16 00:00:00 TS -10.3250 -171.150 40 990 wellington main 385 379 O_______O_O_O_ jtwc_sh SH081987 -10.7000 -171.000 35 0 -9.20000 -171.600 40 990 -10.7000 -171.000 2 35 -10.7000 -171.000 TC 35 4 95
1987015S09187 1987 5 SP MM TUSI 1987-01-16 03:00:00 TS -10.3819 -170.926 main 383 383 P_______P_P_P_ SH081987 -10.7350 -170.800 37 0 -9.32001 -171.300 45 987 -10.7376 -170.804 2 37 -10.7350 -170.800 TC 37 5 109
1987015S09187 1987 5 SP MM TUSI 1987-01-16 06:00:00 TS -10.4750 -170.701 50 985 wellington main 383 379 O_______O_P_O_ jtwc_sh SH081987 -10.8000 -170.600 40 0 -9.50000 -171.000 50 985 -10.8001 -170.605 2 40 -10.8000 -170.600 TC 40 5 116
1987015S09187 1987 5 SP MM TUSI 1987-01-16 09:00:00 TS -10.5875 -170.499 main 384 381 P_______P_P_P_ SH081987 -10.8725 -170.428 42 0 -9.74251 -170.713 50 985 -10.8626 -170.429 2 42 -10.8725 -170.428 TC 42 4 120
1987015S09187 1987 5 SP MM TUSI 1987-01-16 12:00:00 TS -10.6750 -170.350 50 985 wellington main 387 387 O_______O_O_O_ jtwc_sh SH081987 -10.9000 -170.300 45 0 -10.0000 -170.500 50 985 -10.9000 -170.300 2 45 -10.9000 -170.300 TC 45 2 113
1987015S09187 1987 5 SP MM TUSI 1987-01-16 15:00:00 TS -10.6790 -170.279 main 387 387 P_______P_P_P_ SH081987 -10.8075 -170.220 50 0 -10.2750 -170.412 50 985 -10.8259 -170.262 2 47 -10.8075 -170.220 TC 50 1 62
1987015S09187 1987 5 SP MM TUSI 1987-01-16 18:00:00 TS -10.6331 -170.267 50 985 wellington main 397 397 O_______O_P_O_ jtwc_sh SH081987 -10.7000 -170.200 55 0 -10.4000 -170.400 50 985 -10.7324 -170.270 2 50 -10.7000 -170.200 TC 55 2 0
1987015S09187 1987 5 SP MM TUSI 1987-01-16 21:00:00 TS -10.5107 -170.296 main 406 406 P_______P_P_P_ SH081987 -10.6550 -170.250 55 0 -10.0600 -170.393 52 982 -10.6728 -170.293 2 52 -10.6550 -170.250 TC 55 1 339
1987015S09187 1987 5 SP MM TUSI 1987-01-17 00:00:00 TS -10.5000 -170.325 55 980 wellington main 406 378 O_______O_O_O_ jtwc_sh SH081987 -10.7000 -170.300 55 0 -9.90000 -170.400 55 980 -10.7000 -170.300 2 55 -10.7000 -170.300 TC 55 3 0
1987015S09187 1987 5 SP MM TUSI 1987-01-17 03:00:00 TS -10.7914 -170.299 main 378 344 P_______P_P_P_ SH081987 -10.8475 -170.272 57 0 -10.6175 -170.400 55 980 -10.8532 -170.251 2 58 -10.8475 -170.272 TC 57 7 174
1987015S09187 1987 5 SP MM TUSI 1987-01-17 06:00:00 TS -11.2000 -170.245 55 980 wellington main 351 327 O_______O_P_O_ jtwc_sh SH081987 -11.1000 -170.200 60 0 -11.5000 -170.400 55 980 -11.1000 -170.180 2 62 -11.1000 -170.200 TC 60 8 171
1987015S09187 1987 5 SP MM TUSI 1987-01-17 09:00:00 TS -11.5267 -170.174 main 327 304 P_______P_P_P_ SH081987 -11.4125 -170.100 65 1 -11.8600 -170.400 57 977 -11.4219 -170.094 2 66 -11.4125 -170.100 TC 65 7 168
1987015S09187 1987 5 SP MM TUSI 1987-01-17 12:00:00 TS -11.8750 -170.100 60 975 wellington main 304 276 O_______O_O_O_ jtwc_sh SH081987 -11.8000 -170.000 70 1 -12.1000 -170.400 60 975 -11.8000 -170.000 3 70 -11.8000 -170.000 TC 70 8 172
1987015S09187 1987 5 SP MM TUSI 1987-01-17 15:00:00 TS -12.2878 -170.065 main 276 263 P_______P_P_P_ SH081987 -12.2350 -169.957 80 1 -12.4775 -170.415 62 972 -12.2037 -169.931 3 75 -12.2350 -169.957 TC 80 9 174
1987015S09187 1987 5 SP MM TUSI 1987-01-17 18:00:00 TS -12.7387 -170.013 65 970 wellington main 263 250 O_______O_P_O_ jtwc_sh SH081987 -12.7000 -169.900 90 2 -12.9000 -170.400 65 970 -12.6549 -169.852 3 80 -12.7000 -169.900 TC 90 9 171
1987015S09187 1987 5 SP MM TUSI 1987-01-17 21:00:00 TS -13.2021 -169.911 main 255 251 P_______P_P_P_ SH081987 -13.1650 -169.780 90 2 -13.3500 -170.337 67 967 -13.1286 -169.747 3 85 -13.1650 -169.780 TC 90 10 164
1987015S09187 1987 5 SP MM TUSI 1987-01-18 00:00:00 TS -13.6500 -169.750 70 965 wellington main 270 259 O_______O_O_O_ jtwc_sh SH081987 -13.6000 -169.600 90 2 -13.8000 -170.200 70 965 -13.6000 -169.600 4 90 -13.6000 -169.600 TC 90 9 156
1987015S09187 1987 5 SP MM TUSI 1987-01-18 03:00:00 TS -14.0215 -169.533 main 292 292 P_______P_P_P_ SH081987 -13.9425 -169.365 92 2 -14.1850 -169.987 75 960 -14.0159 -169.413 4 92 -13.9425 -169.365 TC 92 9 148
1987015S09187 1987 5 SP MM TUSI 1987-01-18 06:00:00 TS -14.4068 -169.270 80 955 wellington main 320 320 O_______O_P_O_ jtwc_sh SH081987 -14.3000 -169.100 95 2 -14.6000 -169.700 80 955 -14.4274 -169.182 4 95 -14.3000 -169.100 TC 95 10 149
1987015S09187 1987 5 SP MM TUSI 1987-01-18 09:00:00 TS -14.8831 -169.001 main 366 366 P_______P_P_P_ SH081987 -14.7774 -168.865 97 3 -15.1275 -169.365 80 955 -14.8502 -168.910 4 97 -14.7774 -168.865 TC 97 11 151
1987015S09187 1987 5 SP MM TUSI 1987-01-18 12:00:00 TS -15.4000 -168.700 80 955 wellington main 417 417 O_______O_O_O_ jtwc_sh SH081987 -15.3000 -168.600 100 3 -15.7000 -169.000 80 955 -15.3000 -168.600 4 100 -15.3000 -168.600 TC 100 12 149
1987015S09187 1987 5 SP MM TUSI 1987-01-18 15:00:00 TS -15.9116 -168.359 main 471 471 P_______P_P_P_ SH081987 -15.7925 -168.272 97 3 -16.2650 -168.642 80 955 -15.7965 -168.249 4 97 -15.7925 -168.272 TC 97 12 146
1987015S09187 1987 5 SP MM TUSI 1987-01-18 18:00:00 TS -16.4301 -167.991 80 955 wellington main 536 536 O_______O_P_O_ jtwc_sh SH081987 -16.3000 -167.900 95 2 -16.8000 -168.300 80 955 -16.3204 -167.865 4 95 -16.3000 -167.900 TC 95 13 145
1987015S09187 1987 5 SP MM TUSI 1987-01-18 21:00:00 TS -16.9504 -167.613 main 609 609 P_______P_P_P_ SH081987 -16.8425 -167.493 92 2 -17.2574 -167.992 77 957 -16.8590 -167.474 4 92 -16.8425 -167.493 TC 92 13 146
1987015S09187 1987 5 SP MM TUSI 1987-01-19 00:00:00 TS -17.4750 -167.250 75 960 wellington main 676 668 O_______O_O_O_ jtwc_sh SH081987 -17.4000 -167.100 90 2 -17.7000 -167.700 75 960 -17.4000 -167.100 4 90 -17.4000 -167.100 TC 90 12 149
1987015S09187 1987 5 SP MM TUSI 1987-01-19 03:00:00 TS -18.0126 -166.948 main 736 736 P_______P_P_P_ SH081987 -17.9574 -166.785 90 2 -18.2075 -167.400 70 965 -17.9281 -166.821 4 85 -17.9574 -166.785 TC 90 12 152
1987015S09187 1987 5 SP MM TUSI 1987-01-19 06:00:00 TS -18.5390 -166.664 65 970 wellington main 788 788 O_______O_P_O_ jtwc_sh SH081987 -18.5000 -166.500 90 2 -18.7000 -167.100 65 970 -18.4561 -166.557 4 80 -18.5000 -166.500 TC 90 11 152
1987015S09187 1987 5 SP MM TUSI 1987-01-19 09:00:00 TS -19.0238 -166.388 main 849 849 P_______P_P_P_ SH081987 -19.0073 -166.222 80 1 -19.0997 -166.844 62 972 -18.9810 -166.265 4 75 -19.0073 -166.222 TC 80 11 149
1987015S09187 1987 5 SP MM TUSI 1987-01-19 12:00:00 TS -19.5000 -166.050 60 975 wellington main 918 918 O_______O_O_O_ jtwc_sh SH081987 -19.5000 -165.900 70 1 -19.5000 -166.500 60 975 -19.5000 -165.900 4 70 -19.5000 -165.900 TC 70 12 143
1987015S09187 1987 5 SP MM TUSI 1987-01-19 15:00:00 TS -19.9967 -165.608 main 986 986 P_______P_P_P_ SH081987 -19.9997 -165.510 57 0 -19.9701 -165.952 57 977 -20.0173 -165.460 4 62 -19.9997 -165.510 TC 57 14 137
1987015S09187 1987 5 SP MM TUSI 1987-01-19 18:00:00 TS -20.5065 -165.059 55 980 wellington main 1063 1063 O_______O_P_O_ jtwc_sh SH081987 -20.5000 -165.000 45 0 -20.5000 -165.300 55 980 -20.5261 -164.936 4 55 -20.5000 -165.000 TC 45 15 133
1987015S09187 1987 5 SP MM TUSI 1987-01-19 21:00:00 TS -21.0417 -164.411 main 1154 1154 P_______P_P_P_ SH081987 -21.0073 -164.360 42 0 -21.1303 -164.606 52 982 -21.0220 -164.319 4 47 -21.0073 -164.360 TC 42 16 130
1987015S09187 1987 5 SP MM TUSI 1987-01-20 00:00:00 TS -21.5615 -163.723 50 985 wellington main 1253 1253 O_______O_O_O_ jtwc_sh SH081987 -21.5000 -163.600 40 0 -21.7000 -164.000 50 985 -21.5000 -163.600 2 40 -21.5000 -163.600 TC 40 15 129
1987015S09187 1987 5 SP MM TUSI 1987-01-20 03:00:00 TS -21.9996 -163.125 main 1329 1329 P_______P_P_P_ SH081987 -21.9609 -162.769 37 0 -22.0595 -163.654 47 986 -21.9572 -162.779 2 37 -21.9609 -162.769 TC 37 12 131
1987015S09187 1987 5 SP MM TUSI 1987-01-20 06:00:00 TS -22.3429 -162.757 45 987 wellington main 1374 1367 O_______O_O_O_ jtwc_sh SH081987 -22.4000 -161.900 35 0 -22.3000 -163.400 45 987 -22.4000 -161.900 2 35 -22.4000 -161.900 TC 35 5 172
1987015S09187 1987 5 SP MM TUSI 1987-01-20 09:00:00 NR -22.5075 -163.057 main 1367 1367 ________P_____ SH081987 -1 -22.5075 -163.057 45 987 2 TC 4 172
1987015S09187 1987 5 SP MM TUSI 1987-01-20 12:00:00 NR -22.7000 -162.700 45 987 wellington main 1412 1412 ________O_____ -1 -22.7000 -162.700 45 987 8 124
1987015S09187 1987 5 SP MM TUSI 1987-01-20 15:00:00 NR -22.9575 -162.328 main 1465 1465 ________P_____ -1 -22.9576 -162.328 45 987 8 128
1987015S09187 1987 5 SP MM TUSI 1987-01-20 18:00:00 NR -23.2000 -162.000 45 987 wellington main 1503 1503 ________O_____ -1 -23.2000 -162.000 45 987 7 128
1987015S09187 1987 5 SP MM TUSI 1987-01-20 21:00:00 NR -23.3649 -161.770 main 1533 1533 ________P_____ -1 -23.3649 -161.770 45 987 5 129
1987015S09187 1987 5 SP MM TUSI 1987-01-21 00:00:00 NR -23.5000 -161.600 45 987 wellington main 1555 1555 ________O_____ -1 -23.5000 -161.600 45 987 4 133
1987015S09187 1987 5 SP MM TUSI 1987-01-21 03:00:00 NR -23.6500 -161.442 main 1578 1578 ________P_____ -1 -23.6500 -161.442 45 987 4 138
1987015S09187 1987 5 SP MM TUSI 1987-01-21 06:00:00 NR -23.8000 -161.300 45 987 wellington main 1600 1600 ________O_____ -1 -23.8000 -161.300 45 987 4 137
1987015S09187 1987 5 SP MM TUSI 1987-01-21 09:00:00 NR -23.9425 -161.142 main 1623 1623 ________P_____ -1 -23.9425 -161.142 45 987 4 138
1987015S09187 1987 5 SP MM TUSI 1987-01-21 12:00:00 NR -24.1000 -161.000 45 987 wellington main 1646 1646 ________O_____ -1 -24.1000 -161.000 45 987 4 146
1987015S09187 1987 5 SP MM TUSI 1987-01-21 15:00:00 NR -24.2850 -160.892 main 1668 1668 ________P_____ -1 -24.2850 -160.892 45 987 4 156
1987015S09187 1987 5 SP MM TUSI 1987-01-21 18:00:00 NR -24.5000 -160.800 45 987 wellington main 1691 1691 ________O_____ -1 -24.5000 -160.800 45 987 5 157
1987015S09187 1987 5 SP MM TUSI 1987-01-21 21:00:00 NR -24.7425 -160.685 main 1713 1713 ________P_____ -1 -24.7425 -160.685 45 987 5 160
1987015S09187 1987 5 SP MM TUSI 1987-01-22 00:00:00 NR -25.0000 -160.600 45 987 wellington main 1744 1744 ________O_____ -1 -25.0000 -160.600 45 987 5 170
1987015S09187 1987 5 SP MM TUSI 1987-01-22 03:00:00 NR -25.2650 -160.577 main 1767 1767 ________P_____ -1 -25.2650 -160.577 42 988 5 178
1987015S09187 1987 5 SP MM TUSI 1987-01-22 06:00:00 NR -25.5000 -160.600 40 990 wellington main 1783 1783 ________O_____ -1 -25.5000 -160.600 40 990 4 0
1987015S09187 1987 5 SP MM TUSI 1987-01-22 09:00:00 NR -25.6349 -160.598 main 1791 1791 ________P_____ -1 -25.6349 -160.598 40 990 3 196
1987015S09187 1987 5 SP MM TUSI 1987-01-22 12:00:00 NR -25.8000 -160.700 40 990 wellington main 1800 1800 ________O_____ -1 -25.8000 -160.700 40 990 6 213
1987015S09187 1987 5 SP MM TUSI 1987-01-22 15:00:00 NR -26.1574 -160.982 main 1812 1805 ________P_____ -1 -26.1574 -160.982 40 990 9 222
1987015S09187 1987 5 SP MM TUSI 1987-01-22 18:00:00 NR -26.5000 -161.400 40 990 wellington main 1811 1794 ________O_____ -1 -26.5000 -161.400 40 990 9 238
1987015S09187 1987 5 SP MM TUSI 1987-01-22 21:00:00 NR -26.6449 -161.870 main 1788 1766 ________P_____ -1 -26.6449 -161.870 40 990 9 257
1987015S09187 1987 5 SP MM TUSI 1987-01-23 00:00:00 NR -26.7000 -162.400 40 990 wellington main 1766 1736 ________O_____ -1 -26.7000 -162.400 40 990 10 263
1987015S09187 1987 5 SP MM TUSI 1987-01-23 03:00:00 NR -26.7575 -162.950 main 1740 1712 ________P_____ -1 -26.7575 -162.950 40 990 10 264
1987015S09187 1987 5 SP MM TUSI 1987-01-23 06:00:00 NR -26.8000 -163.500 40 990 wellington main 1712 1685 ________O_____ -1 -26.8000 -163.500 40 990 10 265
1987015S09187 1987 5 SP MM TUSI 1987-01-23 09:00:00 NR -26.8500 -164.030 main 1685 1669 ________P_____ -1 -26.8500 -164.030 37 992 9 264
1987015S09187 1987 5 SP MM TUSI 1987-01-23 12:00:00 NR -26.9000 -164.500 35 995 wellington main 1669 1654 ________O_____ -1 -26.9000 -164.500 35 995 7 262
1987015S09187 1987 5 SP MM TUSI 1987-01-23 15:00:00 NR -26.9493 -164.828 main 1654 1645 ________P_____ -1 -26.9493 -164.828 32 996 6 261
1987015S09187 1987 5 SP MM TUSI 1987-01-23 18:00:00 NR -27.0000 -165.200 30 997 wellington main 1645 1618 ________O_____ -1 -27.0000 -165.200 30 997 9 263
1987015S09187 1987 5 SP MM TUSI 1987-01-23 21:00:00 NR -27.0502 -165.805 main 1629 1600 ________P_____ -1 -27.0502 -165.805 30 997 12 265
1987015S09187 1987 5 SP MM TUSI 1987-01-24 00:00:00 NR -27.1000 -166.500 30 997 wellington main 1600 1578 ________O_____ -1 -27.1000 -166.500 30 997 12 266
1987015S09187 1987 5 SP MM TUSI 1987-01-24 03:00:00 NR -27.1348 -167.158 main 1575 1566 ________P_____ -1 -27.1348 -167.158 30 997 12 265
1987015S09187 1987 5 SP MM TUSI 1987-01-24 06:00:00 NR -27.2000 -167.800 30 997 wellington main 1566 1554 ________O_____ -1 -27.2000 -167.800 30 997 11 262
1987015S09187 1987 5 SP MM TUSI 1987-01-24 09:00:00 NR -27.2899 -168.430 main 1560 1555 ________P_____ -1 -27.2899 -168.430 30 997 11 254
1987015S09187 1987 5 SP MM TUSI 1987-01-24 12:00:00 NR -27.5000 -169.000 30 997 wellington main 1567 1555 ________O_____ -1 -27.5000 -169.000 30 997 11 238
1987015S09187 1987 5 SP MM TUSI 1987-01-24 15:00:00 NR -27.8900 -169.532 main 1555 1487 ________P_____ -1 -27.8900 -169.532 30 997 12 221
1987015S09187 1987 5 SP MM TUSI 1987-01-24 18:00:00 NR -28.4000 -169.900 30 997 wellington main 1487 1440 ________O_____ -1 -28.4000 -169.900 30 997 11 202
1987015S09187 1987 5 SP MM TUSI 1987-01-24 21:00:00 NR -28.9422 -170.018 main 1440 1393 ________P_____ -1 -28.9422 -170.018 30 997 11 185
1987015S09187 1987 5 SP MM TUSI 1987-01-25 00:00:00 NR -29.5000 -170.000 30 997 wellington main 1393 1354 ________O_____ -1 -29.5000 -170.000 30 997 11 0
1987015S09187 1987 5 SP MM TUSI 1987-01-25 03:00:00 NR -30.0151 -169.990 main 1354 1317 ________P_____ -1 -30.0151 -169.990 30 997 10 179
1987015S09187 1987 5 SP MM TUSI 1987-01-25 06:00:00 NR -30.5000 -170.000 30 997 wellington main 1317 ________O_____ -1 -30.5000 -170.000 30 997 10 0

Digital Typhoon Data and Search

About IBTrACS Database

This database is a web-friendly format of International Best Track Archive for Climate Stewardship (IBTrACS), a global best track data archive curated by NOAA dating back to 1842.

Updated: 2021-11-26